createdAt,value
2023-07-30T01:31:02.019Z,4.67
2023-07-30T01:33:51.244Z,3.97
2023-07-30T01:36:18.832Z,5.57
2023-07-30T01:38:46.420Z,5.33
2023-07-30T01:41:13.781Z,5.60
2023-07-30T01:50:27.496Z,5.40
2023-07-30T01:52:54.863Z,4.57
2023-07-30T01:55:22.150Z,4.20
2023-07-30T01:57:49.412Z,4.33
2023-07-30T02:00:16.761Z,4.97
2023-07-30T02:02:44.087Z,5.27
2023-07-30T02:05:11.452Z,4.47
2023-07-30T02:07:42.419Z,4.67
2023-07-30T02:10:10.036Z,5.93
2023-07-30T02:12:37.248Z,4.50
2023-07-30T02:15:04.999Z,4.37
2023-07-30T02:17:32.320Z,3.57
2023-07-30T02:19:59.672Z,5.77
2023-07-30T02:22:27.012Z,4.47
2023-07-30T02:24:55.967Z,5.10
2023-07-30T02:27:23.241Z,5.20
2023-07-30T02:29:50.561Z,4.40
2023-07-30T02:32:17.993Z,4.50
2023-07-30T02:34:45.312Z,4.03
2023-07-30T02:37:12.675Z,5.10
2023-07-30T02:39:40.118Z,4.43
2023-07-30T02:42:08.796Z,3.40
2023-07-30T02:44:36.049Z,3.80
2023-07-30T02:47:24.283Z,3.33
2023-07-30T02:49:51.581Z,2.67
2023-07-30T02:52:19.223Z,4.23
2023-07-30T02:54:46.488Z,2.53
2023-07-30T03:01:03.943Z,2.80
2023-07-30T03:03:32.892Z,3.37
2023-07-30T03:06:00.350Z,2.90
2023-07-30T03:08:28.642Z,2.60
2023-07-30T03:10:55.913Z,3.77
2023-07-30T03:13:26.353Z,2.87
2023-07-30T03:38:38.535Z,2.47
2023-07-30T03:41:06.373Z,2.73
2023-07-30T03:43:33.737Z,2.53
2023-07-30T03:46:01.144Z,2.20
2023-07-30T03:48:28.567Z,2.70
2023-07-30T03:51:16.246Z,2.40
2023-07-30T03:53:44.912Z,2.27
2023-07-30T03:56:12.573Z,1.83
2023-07-30T03:58:39.898Z,2.53
2023-07-30T04:08:36.985Z,2.07
2023-07-30T04:11:06.767Z,2.17
2023-07-30T04:14:00.096Z,2.07
2023-07-30T04:16:27.451Z,2.33
2023-07-30T04:18:54.770Z,2.60
2023-07-30T05:51:54.721Z,2.73
2023-07-30T05:54:23.493Z,3.13
2023-07-30T05:56:50.953Z,2.77
2023-07-30T06:05:44.027Z,4.00
2023-07-30T06:08:11.422Z,3.73
2023-07-30T06:10:40.225Z,3.93
2023-07-30T06:13:07.502Z,3.73
2023-07-30T06:15:35.279Z,3.80
2023-07-30T06:18:02.846Z,3.67
2023-07-30T06:20:30.596Z,3.30
2023-07-30T06:22:57.875Z,3.67
2023-07-30T06:25:25.128Z,2.87
2023-07-30T06:27:53.775Z,2.57
2023-07-30T06:30:21.158Z,2.43
2023-07-30T06:32:48.510Z,2.53
2023-07-30T06:35:15.904Z,3.30
2023-07-30T06:37:43.499Z,1.90
2023-07-30T06:40:11.192Z,2.93
2023-07-30T06:42:38.432Z,2.40
2023-07-30T06:45:07.883Z,2.83
2023-07-30T06:47:36.837Z,3.33
2023-07-30T06:53:53.656Z,2.83
2023-07-30T06:56:21.309Z,2.60
2023-07-30T06:58:48.928Z,2.30
2023-07-30T07:01:18.280Z,2.97
2023-07-30T07:03:45.774Z,2.40
2023-07-30T07:06:25.564Z,2.77
2023-07-30T07:08:52.842Z,3.73
2023-07-30T07:11:21.336Z,2.60
2023-07-30T07:13:48.630Z,2.77
2023-07-30T07:16:20.422Z,3.10
2023-07-30T07:18:47.745Z,3.30
2023-07-30T07:21:15.062Z,2.67
2023-07-30T07:23:42.344Z,3.07
2023-07-30T07:26:09.708Z,2.63
2023-07-30T07:28:37.009Z,2.33
2023-07-30T07:31:04.368Z,3.07
2023-07-30T07:33:36.101Z,2.30
2023-07-30T07:36:28.754Z,2.13
2023-07-30T07:38:56.416Z,2.67
2023-07-30T07:41:23.709Z,2.13
2023-07-30T07:43:51.028Z,2.60
2023-07-30T07:46:18.313Z,3.17
2023-07-30T07:48:47.006Z,2.80
2023-07-30T07:51:51.321Z,2.30
2023-07-30T07:54:21.348Z,2.97
2023-07-30T07:56:48.827Z,2.60
2023-07-30T07:59:16.111Z,2.83
2023-07-30T08:01:43.434Z,2.57
2023-07-30T08:04:12.087Z,2.30
2023-07-30T08:06:39.452Z,2.40
2023-07-30T08:09:06.704Z,2.80
2023-07-30T08:11:34.222Z,2.87
2023-07-30T08:14:01.585Z,3.80
2023-07-30T08:16:29.127Z,2.53
2023-07-30T08:18:56.436Z,2.93
2023-07-30T08:21:25.093Z,2.40
2023-07-30T08:23:52.579Z,3.10
2023-07-30T08:26:19.840Z,3.63
2023-07-30T08:28:47.174Z,2.40
2023-07-30T08:31:14.651Z,3.23
2023-07-30T08:33:41.999Z,2.50
2023-07-30T08:36:09.345Z,2.83
2023-07-30T08:38:38.016Z,2.60
2023-07-30T08:41:05.345Z,2.83
2023-07-30T08:43:32.729Z,3.00
2023-07-30T08:46:01.350Z,2.87
2023-07-30T08:48:28.714Z,2.63
2023-07-30T08:50:58.181Z,2.57
2023-07-30T08:53:26.293Z,2.77
2023-07-30T08:55:55.281Z,2.20
2023-07-30T08:58:23.782Z,2.57
2023-07-30T09:00:52.854Z,3.00
2023-07-30T09:03:20.656Z,3.00
2023-07-30T09:05:48.760Z,3.10
2023-07-30T09:08:16.159Z,2.50
2023-07-30T09:10:46.422Z,2.37
2023-07-30T09:13:22.095Z,2.92
2023-07-30T09:15:50.269Z,2.00
2023-07-30T09:18:18.812Z,2.63
2023-07-30T09:20:46.184Z,2.60
2023-07-30T09:23:13.627Z,3.07
2023-07-30T09:25:40.972Z,2.20
2023-07-30T09:28:08.511Z,1.70
2023-07-30T09:30:37.316Z,2.30
2023-07-30T09:33:04.905Z,3.07
2023-07-30T09:35:34.554Z,2.47
2023-07-30T09:38:02.906Z,3.00
2023-07-30T09:40:33.641Z,2.53
2023-07-30T09:43:00.921Z,3.13
2023-07-30T09:45:28.244Z,2.50
2023-07-30T09:47:57.147Z,2.50
2023-07-30T09:50:24.496Z,1.70
2023-07-30T09:52:51.837Z,2.40
2023-07-30T09:55:19.229Z,2.30
2023-07-30T09:57:46.575Z,1.90
2023-07-30T10:00:14.027Z,2.37
2023-07-30T10:02:41.973Z,2.80
2023-07-30T10:05:12.294Z,2.73
2023-07-30T10:07:42.733Z,2.80
2023-07-30T10:10:10.993Z,2.27
2023-07-30T10:12:39.252Z,3.13
2023-07-30T10:15:08.019Z,2.47
2023-07-30T10:17:35.502Z,2.23
2023-07-30T10:20:17.691Z,3.10
2023-07-30T10:22:47.114Z,2.10
2023-07-30T10:25:14.963Z,2.33
2023-07-30T10:27:42.969Z,1.83
2023-07-30T10:30:11.004Z,2.80
2023-07-30T10:32:42.917Z,2.60
2023-07-30T10:35:10.289Z,2.13
2023-07-30T10:37:37.591Z,2.40
2023-07-30T10:43:57.469Z,2.33
2023-07-30T10:46:25.189Z,2.83
2023-07-30T10:48:52.612Z,3.37
2023-07-30T10:51:20.634Z,2.60
2023-07-30T10:53:48.410Z,2.20
2023-07-30T10:56:17.559Z,2.70
2023-07-30T10:58:50.456Z,2.27
2023-07-30T11:01:19.251Z,2.13
2023-07-30T11:03:52.005Z,2.30
2023-07-30T11:06:23.179Z,3.30
2023-07-30T11:08:50.453Z,2.17
2023-07-30T11:11:17.722Z,2.43
2023-07-30T11:13:45.941Z,2.30
2023-07-30T11:16:16.840Z,3.37
2023-07-30T11:18:45.777Z,2.40
2023-07-30T11:21:13.788Z,2.20
2023-07-30T11:23:41.608Z,2.07
2023-07-30T11:26:17.153Z,2.20
2023-07-30T11:28:44.609Z,2.70
2023-07-30T11:31:13.331Z,2.83
2023-07-30T11:33:41.680Z,2.43
2023-07-30T11:36:14.270Z,2.40
2023-07-30T11:38:41.958Z,2.43
2023-07-30T11:41:09.968Z,2.70
2023-07-30T11:43:37.952Z,1.90
2023-07-30T11:46:12.495Z,2.35
2023-07-30T11:48:40.133Z,2.07
2023-07-30T11:51:21.500Z,1.90
2023-07-30T11:53:50.043Z,2.40
2023-07-30T11:56:21.057Z,2.40
2023-07-30T11:58:50.700Z,2.27
2023-07-30T12:01:18.336Z,2.80
2023-07-30T12:03:45.861Z,2.10
2023-07-30T12:06:13.484Z,2.57
2023-07-30T12:08:42.098Z,2.67
2023-07-30T12:11:10.667Z,1.87
2023-07-30T12:13:44.235Z,2.23
2023-07-30T12:16:11.890Z,2.10
2023-07-30T12:18:39.237Z,2.87
2023-07-30T12:21:06.513Z,2.27
2023-07-30T12:23:33.861Z,2.70
2023-07-30T12:26:02.779Z,2.17
2023-07-30T12:28:30.282Z,2.67
2023-07-30T12:30:57.636Z,2.20
2023-07-30T12:33:24.895Z,2.93
2023-07-30T12:35:52.175Z,2.53
2023-07-30T12:38:20.636Z,2.70
2023-07-30T12:40:50.848Z,2.20
2023-07-30T12:43:19.749Z,2.17
2023-07-30T12:45:47.105Z,2.57
2023-07-30T12:48:14.445Z,3.53
2023-07-30T12:50:41.761Z,3.67
2023-07-30T12:53:11.638Z,3.53
2023-07-30T12:55:40.810Z,3.00
2023-07-30T12:58:08.171Z,2.97
2023-07-30T14:27:47.924Z,4.63
2023-07-30T14:30:15.271Z,5.17
2023-07-30T14:32:42.545Z,5.93
2023-07-30T14:35:10.183Z,5.10
2023-07-30T14:37:37.494Z,5.50
2023-07-30T14:40:05.043Z,4.93
2023-07-30T14:42:32.337Z,5.47
2023-07-30T14:45:01.073Z,4.63
2023-07-30T14:47:28.384Z,4.80
2023-07-30T14:49:55.713Z,5.90
2023-07-30T14:52:23.036Z,5.93
2023-07-30T14:54:50.277Z,5.80
2023-07-30T14:57:17.589Z,4.90
2023-07-30T14:59:44.819Z,5.90
2023-07-30T15:02:13.411Z,5.53
2023-07-30T15:04:40.706Z,6.03
2023-07-30T15:07:08.926Z,6.35
2023-07-30T15:09:41.569Z,6.10
2023-07-30T15:12:08.887Z,5.60
2023-07-30T15:14:36.192Z,4.10
2023-07-30T15:17:03.546Z,5.60
2023-07-30T15:19:42.307Z,6.03
2023-07-30T15:22:21.923Z,5.60
2023-07-30T15:24:49.202Z,5.80
2023-07-30T15:27:16.552Z,5.50
2023-07-30T15:29:45.402Z,5.67
2023-07-30T15:32:15.713Z,5.47
2023-07-30T15:34:44.324Z,6.20
2023-07-30T15:37:11.624Z,5.50
2023-07-30T15:39:38.968Z,6.70
2023-07-30T15:42:06.475Z,5.23
2023-07-30T15:44:33.765Z,4.90
2023-07-30T15:47:01.221Z,3.97
2023-07-30T15:49:28.537Z,3.47
2023-07-30T15:51:57.177Z,3.50
2023-07-30T15:54:34.295Z,3.00
2023-07-30T15:57:01.802Z,2.85
2023-07-30T15:59:29.361Z,3.33
2023-07-30T16:01:56.798Z,2.30
2023-07-30T16:04:24.108Z,2.20
2023-07-30T16:06:51.401Z,2.40
2023-07-30T16:09:20.023Z,2.60
2023-07-30T16:11:47.314Z,2.10
2023-07-30T16:14:14.628Z,2.63
2023-07-30T16:16:42.111Z,2.67
2023-07-30T16:19:09.646Z,3.07
2023-07-30T16:21:37.015Z,2.33
2023-07-30T16:27:58.767Z,2.70
2023-07-30T16:30:28.126Z,3.03
2023-07-30T16:32:55.570Z,2.63
2023-07-30T16:35:22.987Z,2.47
2023-07-30T16:38:12.202Z,2.50
2023-07-30T16:40:39.626Z,2.90
2023-07-30T16:43:06.902Z,2.93
2023-07-30T16:45:35.676Z,2.53
2023-07-30T16:48:03.187Z,2.77
2023-07-30T16:50:30.535Z,3.00
2023-07-30T16:52:57.820Z,2.63
2023-07-30T16:55:25.178Z,3.23
2023-07-30T16:57:52.533Z,3.23
2023-07-30T17:00:25.398Z,3.00
2023-07-30T17:02:54.743Z,2.57
2023-07-30T17:05:22.144Z,2.83
2023-07-30T17:07:49.407Z,2.80
2023-07-30T17:10:16.846Z,3.60
2023-07-30T17:12:44.264Z,3.07
2023-07-30T17:15:12.211Z,2.60
2023-07-30T17:17:39.894Z,2.87
2023-07-30T17:20:09.332Z,2.07
2023-07-30T17:22:37.149Z,2.30
2023-07-30T17:25:04.843Z,2.07
2023-07-30T17:27:32.291Z,2.10
2023-07-30T17:29:59.718Z,1.90
2023-07-30T17:32:27.142Z,2.00
2023-07-30T17:34:55.904Z,2.03
2023-07-30T17:37:33.846Z,1.77
2023-07-30T17:40:01.147Z,2.10
2023-07-30T17:42:28.488Z,2.30
2023-07-30T17:44:55.765Z,1.97
2023-07-30T17:47:23.157Z,1.77
2023-07-30T17:49:50.698Z,2.03
2023-07-30T17:52:18.015Z,2.63
2023-07-30T17:54:49.165Z,1.80
2023-07-30T17:57:16.472Z,2.13
2023-07-30T17:59:43.748Z,2.13
2023-07-30T18:02:11.079Z,2.60
2023-07-30T18:04:38.366Z,2.00
2023-07-30T18:07:05.831Z,1.87
2023-07-30T18:09:33.187Z,2.03
2023-07-30T18:12:01.986Z,2.03
2023-07-30T18:14:31.754Z,2.00
2023-07-30T18:16:59.234Z,1.70
2023-07-30T18:19:26.480Z,1.60
2023-07-30T18:21:53.800Z,1.70
2023-07-30T18:24:21.100Z,1.97
2023-07-30T18:26:48.579Z,1.60
2023-07-30T18:29:17.210Z,1.70
2023-07-30T18:31:45.641Z,1.90
2023-07-30T18:34:13.328Z,1.73
2023-07-30T18:36:40.942Z,1.73
2023-07-30T18:42:58.944Z,1.20
2023-07-30T18:45:27.695Z,1.30
2023-07-30T18:47:55.073Z,1.40
2023-07-30T18:50:22.526Z,1.40
2023-07-30T18:53:13.177Z,1.20
2023-07-30T18:55:49.718Z,1.40
2023-07-30T18:58:16.990Z,1.57
2023-07-30T19:00:47.831Z,1.53
2023-07-30T19:03:18.330Z,1.40
2023-07-30T19:05:50.216Z,1.20
2023-07-30T19:08:35.819Z,1.20
2023-07-30T19:11:03.177Z,1.13
2023-07-30T19:13:30.561Z,1.40
2023-07-30T19:15:59.217Z,1.10
2023-07-30T19:25:36.565Z,1.37
2023-07-30T19:28:04.129Z,1.33
2023-07-30T19:30:31.457Z,1.33
2023-07-30T19:33:00.865Z,1.40
2023-07-30T19:35:37.344Z,1.43
2023-07-30T19:38:08.702Z,1.70
2023-07-30T19:40:36.149Z,1.57
2023-07-30T19:43:03.489Z,1.37
2023-07-30T19:45:30.760Z,1.93
2023-07-30T19:48:20.473Z,1.60
2023-07-30T19:54:43.246Z,1.40
2023-07-30T19:57:14.620Z,1.50
2023-07-30T19:59:41.931Z,1.50
2023-07-30T20:02:09.322Z,1.80
2023-07-30T20:04:40.093Z,2.27
2023-07-30T20:07:07.482Z,1.80
2023-07-30T20:09:41.096Z,1.80
2023-07-30T20:12:08.596Z,2.17
2023-07-30T20:14:40.346Z,2.67
2023-07-30T20:17:07.669Z,2.10
2023-07-30T20:19:35.512Z,2.07
2023-07-30T20:27:48.891Z,2.00
2023-07-30T20:30:17.729Z,1.70
2023-07-30T20:32:44.990Z,2.03
2023-07-30T20:35:12.335Z,1.90
2023-07-30T20:37:48.909Z,2.03
2023-07-30T20:40:28.882Z,1.47
2023-07-30T20:43:08.628Z,1.87
2023-07-30T20:45:37.276Z,1.77
2023-07-30T20:48:04.797Z,1.97
2023-07-30T20:50:32.159Z,1.63
2023-07-30T20:52:59.404Z,2.20
2023-07-30T20:55:26.775Z,1.90
2023-07-30T20:58:00.161Z,1.37
2023-07-30T21:00:27.591Z,2.03
2023-07-30T21:02:56.246Z,1.70
2023-07-30T21:05:23.589Z,1.53
2023-07-30T21:08:12.639Z,2.10
2023-07-30T21:13:55.992Z,1.50
2023-07-30T21:16:23.386Z,1.90
2023-07-30T21:18:52.066Z,1.80
2023-07-30T21:21:19.387Z,1.80
2023-07-30T21:23:46.667Z,1.73
2023-07-30T21:26:13.947Z,1.57
2023-07-30T21:28:41.268Z,2.20
2023-07-30T21:31:08.662Z,1.43
2023-07-30T21:33:36.402Z,1.70
2023-07-30T21:36:05.920Z,1.37
2023-07-30T21:38:33.257Z,1.27
2023-07-30T21:41:00.738Z,1.57
2023-07-30T21:43:28.008Z,1.47
2023-07-30T21:45:56.086Z,1.57
2023-07-30T21:48:23.773Z,1.90
2023-07-30T21:50:58.163Z,1.43
2023-07-30T21:53:26.820Z,1.33
2023-07-30T21:55:54.084Z,1.37
2023-07-30T21:58:21.393Z,2.00
2023-07-30T22:00:51.180Z,2.97
2023-07-30T22:03:18.688Z,2.80
2023-07-30T22:05:46.092Z,2.50
2023-07-30T22:08:13.328Z,2.80
2023-07-30T22:10:43.147Z,3.50
2023-07-30T22:13:10.490Z,2.77
2023-07-30T22:15:37.738Z,3.67
2023-07-30T22:18:05.479Z,4.03
2023-07-30T22:20:32.864Z,3.60
2023-07-30T22:23:00.557Z,2.67
2023-07-30T22:25:27.874Z,3.50
2023-07-30T23:12:04.896Z,7.17
2023-07-30T23:14:33.546Z,6.53
2023-07-30T23:17:00.854Z,6.77
2023-07-30T23:19:28.132Z,6.93
2023-07-30T23:21:55.452Z,7.07
2023-07-30T23:24:22.708Z,8.63
2023-07-30T23:30:39.454Z,6.43
2023-07-30T23:33:06.868Z,7.30
2023-07-30T23:35:34.218Z,6.43
2023-07-30T23:38:01.525Z,9.48
2023-07-30T23:40:28.829Z,8.23
2023-07-30T23:42:59.750Z,7.77
2023-07-30T23:45:27.243Z,5.77
2023-07-30T23:47:55.948Z,7.13
2023-07-30T23:50:23.237Z,7.30
2023-07-30T23:52:50.515Z,7.40
2023-07-30T23:55:17.812Z,6.37
2023-07-30T23:57:48.558Z,6.47
